sensor_id;sensor_type;location;lat;lon;timestamp;temperature;humidity
7030;DHT22;3556;53.500;10.176;2023-01-24T00:01:11;2.80;99.90
7030;DHT22;3556;53.500;10.176;2023-01-24T00:03:36;2.80;99.90
7030;DHT22;3556;53.500;10.176;2023-01-24T00:06:02;2.80;99.90
7030;DHT22;3556;53.500;10.176;2023-01-24T00:08:28;2.80;99.90
7030;DHT22;3556;53.500;10.176;2023-01-24T00:11:05;2.80;99.90
7030;DHT22;3556;53.500;10.176;2023-01-24T00:13:32;2.80;99.90
7030;DHT22;3556;53.500;10.176;2023-01-24T00:16:12;2.80;99.90
7030;DHT22;3556;53.500;10.176;2023-01-24T00:18:38;2.80;99.90
7030;DHT22;3556;53.500;10.176;2023-01-24T00:21:08;2.80;99.90
7030;DHT22;3556;53.500;10.176;2023-01-24T00:23:45;2.80;99.90
7030;DHT22;3556;53.500;10.176;2023-01-24T00:26:12;2.80;99.90
7030;DHT22;3556;53.500;10.176;2023-01-24T00:28:38;2.80;99.90
7030;DHT22;3556;53.500;10.176;2023-01-24T00:31:04;2.80;99.90
7030;DHT22;3556;53.500;10.176;2023-01-24T00:33:31;2.80;99.90
7030;DHT22;3556;53.500;10.176;2023-01-24T00:35:56;2.80;99.90
7030;DHT22;3556;53.500;10.176;2023-01-24T00:38:22;2.80;99.90
7030;DHT22;3556;53.500;10.176;2023-01-24T00:40:48;2.80;99.90
7030;DHT22;3556;53.500;10.176;2023-01-24T00:43:15;2.80;99.90
7030;DHT22;3556;53.500;10.176;2023-01-24T00:45:41;2.80;99.90
7030;DHT22;3556;53.500;10.176;2023-01-24T00:48:08;2.80;99.90
7030;DHT22;3556;53.500;10.176;2023-01-24T00:50:34;2.70;99.90
7030;DHT22;3556;53.500;10.176;2023-01-24T00:53:00;2.70;99.90
7030;DHT22;3556;53.500;10.176;2023-01-24T00:55:26;2.70;99.90
7030;DHT22;3556;53.500;10.176;2023-01-24T00:57:53;2.70;99.90
7030;DHT22;3556;53.500;10.176;2023-01-24T01:00:18;2.70;99.90
7030;DHT22;3556;53.500;10.176;2023-01-24T01:02:44;2.70;99.90
7030;DHT22;3556;53.500;10.176;2023-01-24T01:05:10;2.70;99.90
7030;DHT22;3556;53.500;10.176;2023-01-24T01:07:35;2.70;99.90
7030;DHT22;3556;53.500;10.176;2023-01-24T01:10:01;2.70;99.90
7030;DHT22;3556;53.500;10.176;2023-01-24T01:12:27;2.70;99.90
7030;DHT22;3556;53.500;10.176;2023-01-24T01:14:53;2.70;99.90
7030;DHT22;3556;53.500;10.176;2023-01-24T01:17:18;2.70;99.90
7030;DHT22;3556;53.500;10.176;2023-01-24T01:19:44;2.70;99.90
7030;DHT22;3556;53.500;10.176;2023-01-24T01:22:10;2.70;99.90
7030;DHT22;3556;53.500;10.176;2023-01-24T01:24:35;2.70;99.90
7030;DHT22;3556;53.500;10.176;2023-01-24T01:27:01;2.70;99.90
7030;DHT22;3556;53.500;10.176;2023-01-24T01:29:27;2.70;99.90
7030;DHT22;3556;53.500;10.176;2023-01-24T01:31:53;2.70;99.90
7030;DHT22;3556;53.500;10.176;2023-01-24T01:34:19;2.70;99.90
7030;DHT22;3556;53.500;10.176;2023-01-24T01:36:44;2.70;99.90
7030;DHT22;3556;53.500;10.176;2023-01-24T01:39:10;2.70;99.90
7030;DHT22;3556;53.500;10.176;2023-01-24T01:41:36;2.60;99.90
7030;DHT22;3556;53.500;10.176;2023-01-24T01:44:25;2.60;99.90
7030;DHT22;3556;53.500;10.176;2023-01-24T01:49:34;2.60;99.90
7030;DHT22;3556;53.500;10.176;2023-01-24T01:52:05;2.60;99.90
7030;DHT22;3556;53.500;10.176;2023-01-24T01:54:35;2.60;99.90
7030;DHT22;3556;53.500;10.176;2023-01-24T01:57:05;2.60;99.90
7030;DHT22;3556;53.500;10.176;2023-01-24T01:59:38;2.60;99.90
7030;DHT22;3556;53.500;10.176;2023-01-24T02:02:06;2.60;99.90
7030;DHT22;3556;53.500;10.176;2023-01-24T02:04:35;2.60;99.90
7030;DHT22;3556;53.500;10.176;2023-01-24T02:07:14;2.60;99.90
7030;DHT22;3556;53.500;10.176;2023-01-24T02:09:43;2.60;99.90
7030;DHT22;3556;53.500;10.176;2023-01-24T02:12:22;2.60;99.90
7030;DHT22;3556;53.500;10.176;2023-01-24T02:14:53;2.60;99.90
7030;DHT22;3556;53.500;10.176;2023-01-24T02:17:38;2.50;99.90
7030;DHT22;3556;53.500;10.176;2023-01-24T02:22:43;2.50;99.90
7030;DHT22;3556;53.500;10.176;2023-01-24T02:25:13;2.50;99.90
7030;DHT22;3556;53.500;10.176;2023-01-24T02:27:42;2.60;99.90
7030;DHT22;3556;53.500;10.176;2023-01-24T02:30:08;2.60;99.90
7030;DHT22;3556;53.500;10.176;2023-01-24T02:32:34;2.60;99.90
7030;DHT22;3556;53.500;10.176;2023-01-24T02:34:59;2.50;99.90
7030;DHT22;3556;53.500;10.176;2023-01-24T02:37:25;2.50;99.90
7030;DHT22;3556;53.500;10.176;2023-01-24T02:39:59;2.50;99.90
7030;DHT22;3556;53.500;10.176;2023-01-24T02:42:35;2.50;99.90
7030;DHT22;3556;53.500;10.176;2023-01-24T02:45:12;2.50;99.90
7030;DHT22;3556;53.500;10.176;2023-01-24T02:47:48;2.50;99.90
7030;DHT22;3556;53.500;10.176;2023-01-24T02:50:16;2.50;99.90
7030;DHT22;3556;53.500;10.176;2023-01-24T02:52:41;2.50;99.90
7030;DHT22;3556;53.500;10.176;2023-01-24T02:55:25;2.50;99.90
7030;DHT22;3556;53.500;10.176;2023-01-24T02:57:51;2.50;99.90
7030;DHT22;3556;53.500;10.176;2023-01-24T03:00:42;2.50;99.90
7030;DHT22;3556;53.500;10.176;2023-01-24T03:03:08;2.50;99.90
7030;DHT22;3556;53.500;10.176;2023-01-24T03:05:35;2.50;99.90
7030;DHT22;3556;53.500;10.176;2023-01-24T03:08:19;2.50;99.90
7030;DHT22;3556;53.500;10.176;2023-01-24T03:10:45;2.50;99.90
7030;DHT22;3556;53.500;10.176;2023-01-24T03:13:12;2.50;99.90
7030;DHT22;3556;53.500;10.176;2023-01-24T03:15:59;2.50;99.90
7030;DHT22;3556;53.500;10.176;2023-01-24T03:18:43;2.50;99.90
7030;DHT22;3556;53.500;10.176;2023-01-24T03:21:27;2.50;99.90
7030;DHT22;3556;53.500;10.176;2023-01-24T03:24:11;2.50;99.90
7030;DHT22;3556;53.500;10.176;2023-01-24T03:26:55;2.50;99.90
7030;DHT22;3556;53.500;10.176;2023-01-24T03:29:39;2.50;99.90
7030;DHT22;3556;53.500;10.176;2023-01-24T03:32:23;2.50;99.90
7030;DHT22;3556;53.500;10.176;2023-01-24T03:35:07;2.50;99.90
7030;DHT22;3556;53.500;10.176;2023-01-24T03:37:33;2.50;99.90
7030;DHT22;3556;53.500;10.176;2023-01-24T03:40:17;2.50;99.90
7030;DHT22;3556;53.500;10.176;2023-01-24T03:42:43;2.50;99.90
7030;DHT22;3556;53.500;10.176;2023-01-24T03:45:22;2.50;99.90
7030;DHT22;3556;53.500;10.176;2023-01-24T03:47:51;2.50;99.90
7030;DHT22;3556;53.500;10.176;2023-01-24T03:50:24;2.50;99.90
7030;DHT22;3556;53.500;10.176;2023-01-24T03:53:08;2.50;99.90
7030;DHT22;3556;53.500;10.176;2023-01-24T03:55:34;2.50;99.90
7030;DHT22;3556;53.500;10.176;2023-01-24T03:58:00;2.50;99.90
7030;DHT22;3556;53.500;10.176;2023-01-24T04:00:26;2.50;99.90
7030;DHT22;3556;53.500;10.176;2023-01-24T04:02:52;2.50;99.90
7030;DHT22;3556;53.500;10.176;2023-01-24T04:05:18;2.50;99.90
7030;DHT22;3556;53.500;10.176;2023-01-24T04:07:46;2.50;99.90
7030;DHT22;3556;53.500;10.176;2023-01-24T04:10:11;2.50;99.90
7030;DHT22;3556;53.500;10.176;2023-01-24T04:12:42;2.50;99.90
7030;DHT22;3556;53.500;10.176;2023-01-24T04:15:08;2.50;99.90
7030;DHT22;3556;53.500;10.176;2023-01-24T04:17:36;2.50;99.90
7030;DHT22;3556;53.500;10.176;2023-01-24T04:20:02;2.50;99.90
7030;DHT22;3556;53.500;10.176;2023-01-24T04:22:28;2.40;99.90
7030;DHT22;3556;53.500;10.176;2023-01-24T04:24:53;2.40;99.90
7030;DHT22;3556;53.500;10.176;2023-01-24T04:27:19;2.40;99.90
7030;DHT22;3556;53.500;10.176;2023-01-24T04:29:44;2.40;99.90
7030;DHT22;3556;53.500;10.176;2023-01-24T04:32:10;2.40;99.90
7030;DHT22;3556;53.500;10.176;2023-01-24T04:34:36;2.40;99.90
7030;DHT22;3556;53.500;10.176;2023-01-24T04:37:01;2.40;99.90
7030;DHT22;3556;53.500;10.176;2023-01-24T04:39:27;2.50;99.90
7030;DHT22;3556;53.500;10.176;2023-01-24T04:41:53;2.50;99.90
7030;DHT22;3556;53.500;10.176;2023-01-24T04:44:18;2.50;99.90
7030;DHT22;3556;53.500;10.176;2023-01-24T04:46:44;2.40;99.90
7030;DHT22;3556;53.500;10.176;2023-01-24T04:49:09;2.40;99.90
7030;DHT22;3556;53.500;10.176;2023-01-24T04:51:35;2.50;99.90
7030;DHT22;3556;53.500;10.176;2023-01-24T04:54:01;2.50;99.90
7030;DHT22;3556;53.500;10.176;2023-01-24T04:56:26;2.40;99.90
7030;DHT22;3556;53.500;10.176;2023-01-24T04:58:52;2.40;99.90
7030;DHT22;3556;53.500;10.176;2023-01-24T05:01:17;2.40;99.90
7030;DHT22;3556;53.500;10.176;2023-01-24T05:03:43;2.40;99.90
7030;DHT22;3556;53.500;10.176;2023-01-24T05:06:08;2.40;99.90
7030;DHT22;3556;53.500;10.176;2023-01-24T05:08:34;2.40;99.90
7030;DHT22;3556;53.500;10.176;2023-01-24T05:11:03;2.40;99.90
7030;DHT22;3556;53.500;10.176;2023-01-24T05:13:29;2.40;99.90
7030;DHT22;3556;53.500;10.176;2023-01-24T05:15:55;2.40;99.90
7030;DHT22;3556;53.500;10.176;2023-01-24T05:18:20;2.40;99.90
7030;DHT22;3556;53.500;10.176;2023-01-24T05:20:46;2.40;99.90
7030;DHT22;3556;53.500;10.176;2023-01-24T05:23:12;2.40;99.90
7030;DHT22;3556;53.500;10.176;2023-01-24T05:25:37;2.40;99.90
7030;DHT22;3556;53.500;10.176;2023-01-24T05:28:03;2.40;99.90
7030;DHT22;3556;53.500;10.176;2023-01-24T05:30:29;2.40;99.90
7030;DHT22;3556;53.500;10.176;2023-01-24T05:32:56;2.40;99.90
7030;DHT22;3556;53.500;10.176;2023-01-24T05:35:21;2.40;99.90
7030;DHT22;3556;53.500;10.176;2023-01-24T05:37:47;2.50;99.90
7030;DHT22;3556;53.500;10.176;2023-01-24T05:40:12;2.40;99.90
7030;DHT22;3556;53.500;10.176;2023-01-24T05:42:40;2.40;99.90
7030;DHT22;3556;53.500;10.176;2023-01-24T05:45:08;2.40;99.90
7030;DHT22;3556;53.500;10.176;2023-01-24T05:47:34;2.40;99.90
7030;DHT22;3556;53.500;10.176;2023-01-24T05:49:59;2.50;99.90
7030;DHT22;3556;53.500;10.176;2023-01-24T05:52:25;2.40;99.90
7030;DHT22;3556;53.500;10.176;2023-01-24T05:54:51;2.40;99.90
7030;DHT22;3556;53.500;10.176;2023-01-24T05:57:17;2.40;99.90
7030;DHT22;3556;53.500;10.176;2023-01-24T05:59:43;2.40;99.90
7030;DHT22;3556;53.500;10.176;2023-01-24T06:02:09;2.40;99.90
7030;DHT22;3556;53.500;10.176;2023-01-24T06:04:34;2.40;99.90
7030;DHT22;3556;53.500;10.176;2023-01-24T06:07:00;2.40;99.90
7030;DHT22;3556;53.500;10.176;2023-01-24T06:09:26;2.30;99.90
7030;DHT22;3556;53.500;10.176;2023-01-24T06:11:52;2.30;99.90
7030;DHT22;3556;53.500;10.176;2023-01-24T06:14:18;2.30;99.90
7030;DHT22;3556;53.500;10.176;2023-01-24T06:16:44;2.30;99.90
7030;DHT22;3556;53.500;10.176;2023-01-24T06:19:11;2.30;99.90
7030;DHT22;3556;53.500;10.176;2023-01-24T06:24:21;2.30;99.90
7030;DHT22;3556;53.500;10.176;2023-01-24T06:26:48;2.40;99.90
7030;DHT22;3556;53.500;10.176;2023-01-24T06:29:15;2.40;99.90
7030;DHT22;3556;53.500;10.176;2023-01-24T06:37:10;2.40;99.90
7030;DHT22;3556;53.500;10.176;2023-01-24T06:39:39;2.40;99.90
7030;DHT22;3556;53.500;10.176;2023-01-24T06:42:05;2.30;99.90
7030;DHT22;3556;53.500;10.176;2023-01-24T06:44:31;2.30;99.90
7030;DHT22;3556;53.500;10.176;2023-01-24T06:46:57;2.30;99.90
7030;DHT22;3556;53.500;10.176;2023-01-24T06:49:22;2.30;99.90
7030;DHT22;3556;53.500;10.176;2023-01-24T06:51:51;2.30;99.90
7030;DHT22;3556;53.500;10.176;2023-01-24T06:54:17;2.30;99.90
7030;DHT22;3556;53.500;10.176;2023-01-24T06:56:43;2.30;99.90
7030;DHT22;3556;53.500;10.176;2023-01-24T06:59:09;2.30;99.90
7030;DHT22;3556;53.500;10.176;2023-01-24T07:01:34;2.30;99.90
7030;DHT22;3556;53.500;10.176;2023-01-24T07:04:00;2.30;99.90
7030;DHT22;3556;53.500;10.176;2023-01-24T07:06:25;2.20;99.90
7030;DHT22;3556;53.500;10.176;2023-01-24T07:08:52;2.20;99.90
7030;DHT22;3556;53.500;10.176;2023-01-24T07:11:18;2.20;99.90
7030;DHT22;3556;53.500;10.176;2023-01-24T07:13:44;2.20;99.90
7030;DHT22;3556;53.500;10.176;2023-01-24T07:16:09;2.20;99.90
7030;DHT22;3556;53.500;10.176;2023-01-24T07:18:35;2.20;99.90
7030;DHT22;3556;53.500;10.176;2023-01-24T07:21:05;2.20;99.90
7030;DHT22;3556;53.500;10.176;2023-01-24T07:23:31;2.20;99.90
7030;DHT22;3556;53.500;10.176;2023-01-24T07:25:58;2.20;99.90
7030;DHT22;3556;53.500;10.176;2023-01-24T07:28:24;2.20;99.90
7030;DHT22;3556;53.500;10.176;2023-01-24T07:30:52;2.20;99.90
7030;DHT22;3556;53.500;10.176;2023-01-24T07:33:18;2.20;99.90
7030;DHT22;3556;53.500;10.176;2023-01-24T07:35:44;2.20;99.90
7030;DHT22;3556;53.500;10.176;2023-01-24T07:38:10;2.20;99.90
7030;DHT22;3556;53.500;10.176;2023-01-24T07:40:37;2.30;99.90
7030;DHT22;3556;53.500;10.176;2023-01-24T07:43:04;2.20;99.90
7030;DHT22;3556;53.500;10.176;2023-01-24T07:45:30;2.30;99.90
7030;DHT22;3556;53.500;10.176;2023-01-24T07:47:58;2.30;99.90
7030;DHT22;3556;53.500;10.176;2023-01-24T07:50:25;2.30;99.90
7030;DHT22;3556;53.500;10.176;2023-01-24T07:52:52;2.30;99.90
7030;DHT22;3556;53.500;10.176;2023-01-24T07:55:18;2.30;99.90
7030;DHT22;3556;53.500;10.176;2023-01-24T07:57:44;2.30;99.90
7030;DHT22;3556;53.500;10.176;2023-01-24T08:00:10;2.30;99.90
7030;DHT22;3556;53.500;10.176;2023-01-24T08:02:36;2.30;99.90
7030;DHT22;3556;53.500;10.176;2023-01-24T08:05:01;2.30;99.90
7030;DHT22;3556;53.500;10.176;2023-01-24T08:07:27;2.30;99.90
7030;DHT22;3556;53.500;10.176;2023-01-24T08:09:52;2.30;99.90
7030;DHT22;3556;53.500;10.176;2023-01-24T08:12:18;2.30;99.90
7030;DHT22;3556;53.500;10.176;2023-01-24T08:14:44;2.30;99.90
7030;DHT22;3556;53.500;10.176;2023-01-24T08:17:10;2.30;99.90
7030;DHT22;3556;53.500;10.176;2023-01-24T08:19:35;2.30;99.90
7030;DHT22;3556;53.500;10.176;2023-01-24T08:22:02;2.30;99.90
7030;DHT22;3556;53.500;10.176;2023-01-24T08:24:28;2.30;99.90
7030;DHT22;3556;53.500;10.176;2023-01-24T08:26:53;2.30;99.90
7030;DHT22;3556;53.500;10.176;2023-01-24T08:29:19;2.30;99.90
7030;DHT22;3556;53.500;10.176;2023-01-24T08:31:45;2.30;99.90
7030;DHT22;3556;53.500;10.176;2023-01-24T08:34:10;2.30;99.90
7030;DHT22;3556;53.500;10.176;2023-01-24T08:36:36;2.30;99.90
7030;DHT22;3556;53.500;10.176;2023-01-24T08:39:02;2.30;99.90
7030;DHT22;3556;53.500;10.176;2023-01-24T08:41:31;2.30;99.90
7030;DHT22;3556;53.500;10.176;2023-01-24T08:43:56;2.30;99.90
7030;DHT22;3556;53.500;10.176;2023-01-24T08:46:22;2.30;99.90
7030;DHT22;3556;53.500;10.176;2023-01-24T08:48:48;2.30;99.90
7030;DHT22;3556;53.500;10.176;2023-01-24T08:51:13;2.30;99.90
7030;DHT22;3556;53.500;10.176;2023-01-24T08:53:39;2.30;99.90
7030;DHT22;3556;53.500;10.176;2023-01-24T08:56:05;2.40;99.90
7030;DHT22;3556;53.500;10.176;2023-01-24T08:58:32;2.40;99.90
7030;DHT22;3556;53.500;10.176;2023-01-24T09:00:59;2.40;99.90
7030;DHT22;3556;53.500;10.176;2023-01-24T09:03:25;2.50;99.90
7030;DHT22;3556;53.500;10.176;2023-01-24T09:05:56;2.50;99.90
7030;DHT22;3556;53.500;10.176;2023-01-24T09:08:22;2.50;99.90
7030;DHT22;3556;53.500;10.176;2023-01-24T09:10:48;2.50;99.90
7030;DHT22;3556;53.500;10.176;2023-01-24T09:13:14;2.50;99.90
7030;DHT22;3556;53.500;10.176;2023-01-24T09:15:40;2.50;99.90
7030;DHT22;3556;53.500;10.176;2023-01-24T09:18:05;2.50;99.90
7030;DHT22;3556;53.500;10.176;2023-01-24T09:20:31;2.40;99.90
7030;DHT22;3556;53.500;10.176;2023-01-24T09:22:57;2.40;99.90
7030;DHT22;3556;53.500;10.176;2023-01-24T09:25:22;2.40;99.90
7030;DHT22;3556;53.500;10.176;2023-01-24T09:27:55;2.40;99.90
7030;DHT22;3556;53.500;10.176;2023-01-24T09:30:22;2.50;99.90
7030;DHT22;3556;53.500;10.176;2023-01-24T09:32:48;2.50;99.90
7030;DHT22;3556;53.500;10.176;2023-01-24T09:35:14;2.50;99.90
7030;DHT22;3556;53.500;10.176;2023-01-24T09:37:40;2.50;99.90
7030;DHT22;3556;53.500;10.176;2023-01-24T09:40:21;2.60;99.90
7030;DHT22;3556;53.500;10.176;2023-01-24T09:45:45;2.60;99.90
7030;DHT22;3556;53.500;10.176;2023-01-24T09:48:15;2.60;99.90
7030;DHT22;3556;53.500;10.176;2023-01-24T09:50:56;2.60;99.90
7030;DHT22;3556;53.500;10.176;2023-01-24T09:53:28;2.60;99.90
7030;DHT22;3556;53.500;10.176;2023-01-24T09:55:55;2.60;99.90
7030;DHT22;3556;53.500;10.176;2023-01-24T09:58:29;2.60;99.90
7030;DHT22;3556;53.500;10.176;2023-01-24T10:01:05;2.60;99.90
7030;DHT22;3556;53.500;10.176;2023-01-24T10:03:35;2.60;99.90
7030;DHT22;3556;53.500;10.176;2023-01-24T10:06:15;2.60;99.90
7030;DHT22;3556;53.500;10.176;2023-01-24T10:17:09;2.80;99.90
7030;DHT22;3556;53.500;10.176;2023-01-24T10:25:21;2.80;99.90
7030;DHT22;3556;53.500;10.176;2023-01-24T10:27:50;2.80;99.90
7030;DHT22;3556;53.500;10.176;2023-01-24T10:30:40;2.80;99.90
7030;DHT22;3556;53.500;10.176;2023-01-24T10:33:15;2.80;99.90
7030;DHT22;3556;53.500;10.176;2023-01-24T10:36:00;2.80;99.90
7030;DHT22;3556;53.500;10.176;2023-01-24T10:38:27;2.80;99.90
7030;DHT22;3556;53.500;10.176;2023-01-24T10:41:13;2.80;99.90
7030;DHT22;3556;53.500;10.176;2023-01-24T10:43:41;2.80;99.90
7030;DHT22;3556;53.500;10.176;2023-01-24T10:46:28;2.80;99.90
7030;DHT22;3556;53.500;10.176;2023-01-24T10:48:58;2.80;99.90
7030;DHT22;3556;53.500;10.176;2023-01-24T10:51:25;2.80;99.90
7030;DHT22;3556;53.500;10.176;2023-01-24T10:53:54;2.80;99.90
7030;DHT22;3556;53.500;10.176;2023-01-24T10:56:25;2.80;99.90
7030;DHT22;3556;53.500;10.176;2023-01-24T11:01:35;2.70;99.90
7030;DHT22;3556;53.500;10.176;2023-01-24T11:04:20;2.80;99.90
7030;DHT22;3556;53.500;10.176;2023-01-24T11:06:48;2.70;99.90
7030;DHT22;3556;53.500;10.176;2023-01-24T11:09:19;2.70;99.90
7030;DHT22;3556;53.500;10.176;2023-01-24T11:11:50;2.70;99.90
7030;DHT22;3556;53.500;10.176;2023-01-24T11:14:20;2.70;99.90
7030;DHT22;3556;53.500;10.176;2023-01-24T11:16:52;2.80;99.90
7030;DHT22;3556;53.500;10.176;2023-01-24T11:19:29;2.80;99.90
7030;DHT22;3556;53.500;10.176;2023-01-24T11:21:57;2.80;99.90
7030;DHT22;3556;53.500;10.176;2023-01-24T11:24:25;2.80;99.90
7030;DHT22;3556;53.500;10.176;2023-01-24T11:27:07;2.80;99.90
7030;DHT22;3556;53.500;10.176;2023-01-24T11:29:36;2.80;99.90
7030;DHT22;3556;53.500;10.176;2023-01-24T11:32:26;2.80;99.90
7030;DHT22;3556;53.500;10.176;2023-01-24T11:35:14;2.80;99.90
7030;DHT22;3556;53.500;10.176;2023-01-24T11:43:17;2.80;99.90
7030;DHT22;3556;53.500;10.176;2023-01-24T11:48:21;2.70;99.90
7030;DHT22;3556;53.500;10.176;2023-01-24T11:51:09;2.70;99.90
7030;DHT22;3556;53.500;10.176;2023-01-24T11:53:55;2.70;99.90
7030;DHT22;3556;53.500;10.176;2023-01-24T12:10:59;2.80;99.90
7030;DHT22;3556;53.500;10.176;2023-01-24T12:18:50;2.80;99.90
7030;DHT22;3556;53.500;10.176;2023-01-24T12:21:18;2.80;99.90
7030;DHT22;3556;53.500;10.176;2023-01-24T12:24:03;2.80;99.90
7030;DHT22;3556;53.500;10.176;2023-01-24T12:26:44;2.90;99.90
7030;DHT22;3556;53.500;10.176;2023-01-24T12:29:21;2.90;99.90
7030;DHT22;3556;53.500;10.176;2023-01-24T12:32:02;3.00;99.90
7030;DHT22;3556;53.500;10.176;2023-01-24T12:34:45;2.90;99.90
7030;DHT22;3556;53.500;10.176;2023-01-24T12:37:31;2.90;99.90
7030;DHT22;3556;53.500;10.176;2023-01-24T12:45:38;2.90;99.90
7030;DHT22;3556;53.500;10.176;2023-01-24T12:51:28;2.90;99.90
7030;DHT22;3556;53.500;10.176;2023-01-24T12:54:00;2.90;99.90
7030;DHT22;3556;53.500;10.176;2023-01-24T12:56:44;2.90;99.90
7030;DHT22;3556;53.500;10.176;2023-01-24T12:59:13;3.00;99.90
7030;DHT22;3556;53.500;10.176;2023-01-24T13:12:22;3.00;99.90
7030;DHT22;3556;53.500;10.176;2023-01-24T13:14:56;3.00;99.90
7030;DHT22;3556;53.500;10.176;2023-01-24T13:17:40;2.90;99.90
7030;DHT22;3556;53.500;10.176;2023-01-24T13:20:19;2.80;99.90
7030;DHT22;3556;53.500;10.176;2023-01-24T13:28:51;2.80;99.90
7030;DHT22;3556;53.500;10.176;2023-01-24T13:34:02;2.80;99.90
7030;DHT22;3556;53.500;10.176;2023-01-24T13:36:34;2.80;99.90
7030;DHT22;3556;53.500;10.176;2023-01-24T13:39:00;2.80;99.90
7030;DHT22;3556;53.500;10.176;2023-01-24T13:51:57;2.80;99.90
7030;DHT22;3556;53.500;10.176;2023-01-24T13:54:41;2.80;99.90
7030;DHT22;3556;53.500;10.176;2023-01-24T13:57:25;2.80;99.90
7030;DHT22;3556;53.500;10.176;2023-01-24T14:02:33;2.70;99.90
7030;DHT22;3556;53.500;10.176;2023-01-24T14:05:00;2.70;99.90
7030;DHT22;3556;53.500;10.176;2023-01-24T14:07:35;2.70;99.90
7030;DHT22;3556;53.500;10.176;2023-01-24T14:10:04;2.80;99.90
7030;DHT22;3556;53.500;10.176;2023-01-24T14:12:36;2.80;99.90
7030;DHT22;3556;53.500;10.176;2023-01-24T14:22:54;2.60;99.90
7030;DHT22;3556;53.500;10.176;2023-01-24T14:25:46;2.60;99.90
7030;DHT22;3556;53.500;10.176;2023-01-24T14:30:57;2.60;99.90
7030;DHT22;3556;53.500;10.176;2023-01-24T14:33:36;2.60;99.90
7030;DHT22;3556;53.500;10.176;2023-01-24T14:39:10;2.50;99.90
7030;DHT22;3556;53.500;10.176;2023-01-24T14:41:36;2.50;99.90
7030;DHT22;3556;53.500;10.176;2023-01-24T14:44:02;2.40;99.90
7030;DHT22;3556;53.500;10.176;2023-01-24T14:46:27;2.40;99.90
7030;DHT22;3556;53.500;10.176;2023-01-24T14:48:53;2.30;99.90
7030;DHT22;3556;53.500;10.176;2023-01-24T14:51:22;2.30;99.90
7030;DHT22;3556;53.500;10.176;2023-01-24T14:53:51;2.20;99.90
7030;DHT22;3556;53.500;10.176;2023-01-24T14:56:18;2.20;99.90
7030;DHT22;3556;53.500;10.176;2023-01-24T14:58:44;2.20;99.90
7030;DHT22;3556;53.500;10.176;2023-01-24T15:01:39;2.20;99.90
7030;DHT22;3556;53.500;10.176;2023-01-24T15:04:05;2.20;99.90
7030;DHT22;3556;53.500;10.176;2023-01-24T15:06:31;2.20;99.90
7030;DHT22;3556;53.500;10.176;2023-01-24T15:09:01;2.20;99.90
7030;DHT22;3556;53.500;10.176;2023-01-24T15:11:32;2.20;99.90
7030;DHT22;3556;53.500;10.176;2023-01-24T15:14:17;2.20;99.90
7030;DHT22;3556;53.500;10.176;2023-01-24T15:16:51;2.30;99.90
7030;DHT22;3556;53.500;10.176;2023-01-24T15:19:23;2.20;99.90
7030;DHT22;3556;53.500;10.176;2023-01-24T15:21:50;2.30;99.90
7030;DHT22;3556;53.500;10.176;2023-01-24T15:24:35;2.30;99.90
7030;DHT22;3556;53.500;10.176;2023-01-24T15:27:22;2.20;99.90
7030;DHT22;3556;53.500;10.176;2023-01-24T15:32:44;2.20;99.90
7030;DHT22;3556;53.500;10.176;2023-01-24T15:35:47;2.10;99.90
7030;DHT22;3556;53.500;10.176;2023-01-24T15:38:26;2.10;99.90
7030;DHT22;3556;53.500;10.176;2023-01-24T15:46:25;2.00;99.90
7030;DHT22;3556;53.500;10.176;2023-01-24T15:52:18;2.00;99.90
7030;DHT22;3556;53.500;10.176;2023-01-24T15:54:46;2.00;99.90
7030;DHT22;3556;53.500;10.176;2023-01-24T15:59:45;2.10;99.90
7030;DHT22;3556;53.500;10.176;2023-01-24T16:02:12;2.00;99.90
7030;DHT22;3556;53.500;10.176;2023-01-24T16:04:38;2.00;99.90
7030;DHT22;3556;53.500;10.176;2023-01-24T16:07:03;2.00;99.90
7030;DHT22;3556;53.500;10.176;2023-01-24T16:09:29;2.00;99.90
7030;DHT22;3556;53.500;10.176;2023-01-24T16:11:55;1.90;99.90
7030;DHT22;3556;53.500;10.176;2023-01-24T16:14:22;1.90;99.90
7030;DHT22;3556;53.500;10.176;2023-01-24T16:16:52;1.90;99.90
7030;DHT22;3556;53.500;10.176;2023-01-24T16:19:21;1.80;99.90
7030;DHT22;3556;53.500;10.176;2023-01-24T16:21:47;1.80;99.90
7030;DHT22;3556;53.500;10.176;2023-01-24T16:24:14;1.70;99.90
7030;DHT22;3556;53.500;10.176;2023-01-24T16:26:43;1.70;99.90
7030;DHT22;3556;53.500;10.176;2023-01-24T16:29:21;1.70;99.90
7030;DHT22;3556;53.500;10.176;2023-01-24T16:31:48;1.70;99.90
7030;DHT22;3556;53.500;10.176;2023-01-24T16:34:13;1.70;99.90
7030;DHT22;3556;53.500;10.176;2023-01-24T16:36:40;1.60;99.90
7030;DHT22;3556;53.500;10.176;2023-01-24T16:39:06;1.60;99.90
7030;DHT22;3556;53.500;10.176;2023-01-24T16:41:32;1.60;99.90
7030;DHT22;3556;53.500;10.176;2023-01-24T16:43:58;1.60;99.90
7030;DHT22;3556;53.500;10.176;2023-01-24T16:46:23;1.60;99.90
7030;DHT22;3556;53.500;10.176;2023-01-24T16:48:50;1.60;99.90
7030;DHT22;3556;53.500;10.176;2023-01-24T16:51:18;1.60;99.90
7030;DHT22;3556;53.500;10.176;2023-01-24T16:53:44;1.60;99.90
7030;DHT22;3556;53.500;10.176;2023-01-24T16:56:09;1.60;99.90
7030;DHT22;3556;53.500;10.176;2023-01-24T16:58:35;1.60;99.90
7030;DHT22;3556;53.500;10.176;2023-01-24T17:01:06;1.60;99.90
7030;DHT22;3556;53.500;10.176;2023-01-24T17:03:32;1.60;99.90
7030;DHT22;3556;53.500;10.176;2023-01-24T17:05:58;1.60;99.90
7030;DHT22;3556;53.500;10.176;2023-01-24T17:08:23;1.50;99.90
7030;DHT22;3556;53.500;10.176;2023-01-24T17:10:49;1.50;99.90
7030;DHT22;3556;53.500;10.176;2023-01-24T17:13:14;1.50;99.90
7030;DHT22;3556;53.500;10.176;2023-01-24T17:15:40;1.50;99.90
7030;DHT22;3556;53.500;10.176;2023-01-24T17:18:07;1.50;99.90
7030;DHT22;3556;53.500;10.176;2023-01-24T17:20:33;1.50;99.90
7030;DHT22;3556;53.500;10.176;2023-01-24T17:22:59;1.40;99.90
7030;DHT22;3556;53.500;10.176;2023-01-24T17:25:29;1.40;99.90
7030;DHT22;3556;53.500;10.176;2023-01-24T17:27:55;1.40;99.90
7030;DHT22;3556;53.500;10.176;2023-01-24T17:30:21;1.40;99.90
7030;DHT22;3556;53.500;10.176;2023-01-24T17:32:47;1.30;99.90
7030;DHT22;3556;53.500;10.176;2023-01-24T17:35:13;1.30;99.90
7030;DHT22;3556;53.500;10.176;2023-01-24T17:37:39;1.20;99.90
7030;DHT22;3556;53.500;10.176;2023-01-24T17:40:06;1.20;99.90
7030;DHT22;3556;53.500;10.176;2023-01-24T17:42:33;1.20;99.90
7030;DHT22;3556;53.500;10.176;2023-01-24T17:44:58;1.20;99.90
7030;DHT22;3556;53.500;10.176;2023-01-24T17:47:26;1.20;99.90
7030;DHT22;3556;53.500;10.176;2023-01-24T17:49:52;1.20;99.90
7030;DHT22;3556;53.500;10.176;2023-01-24T17:52:18;1.20;99.90
7030;DHT22;3556;53.500;10.176;2023-01-24T17:54:44;1.20;99.90
7030;DHT22;3556;53.500;10.176;2023-01-24T17:57:10;1.10;99.90
7030;DHT22;3556;53.500;10.176;2023-01-24T17:59:35;1.10;99.90
7030;DHT22;3556;53.500;10.176;2023-01-24T18:02:01;1.10;99.90
7030;DHT22;3556;53.500;10.176;2023-01-24T18:04:27;1.10;99.90
7030;DHT22;3556;53.500;10.176;2023-01-24T18:06:52;1.10;99.90
7030;DHT22;3556;53.500;10.176;2023-01-24T18:09:18;1.10;99.90
7030;DHT22;3556;53.500;10.176;2023-01-24T18:11:43;1.10;99.90
7030;DHT22;3556;53.500;10.176;2023-01-24T18:14:10;1.10;99.90
7030;DHT22;3556;53.500;10.176;2023-01-24T18:16:36;1.10;99.90
7030;DHT22;3556;53.500;10.176;2023-01-24T18:19:01;1.10;99.90
7030;DHT22;3556;53.500;10.176;2023-01-24T18:21:27;1.10;99.90
7030;DHT22;3556;53.500;10.176;2023-01-24T18:23:58;1.10;99.90
7030;DHT22;3556;53.500;10.176;2023-01-24T18:26:26;1.20;99.90